ADDS METAR Data INFO
IDs: Format: Raw Decoded Include TAF

Data at: 0713 UTC 19 Oct 2017

KRBL 190654Z AUTO 29005KT 10SM CLR 12/02 A2990 RMK AO2 SLP123 T01220017 $
KRBL 190554Z AUTO 00000KT 9SM CLR 12/02 A2991 RMK AO2 SLP127 T01220022 10272 20122 50003 $
KRBL 190454Z AUTO 30005KT 8SM CLR 13/03 A2991 RMK AO2 SLP127 T01330028 $
KRBL 190354Z AUTO 00000KT 7SM CLR 16/04 A2990 RMK AO2 SLP124 T01560039 $
KRBL 190254Z AUTO 15004KT 10SM CLR 18/04 A2990 RMK AO2 SLP124 T01830044 55006 $
KRBL 190154Z AUTO 15005KT 10SM CLR 18/02 A2990 RMK AO2 SLP123 T01830022 $
KRBL 190054Z AUTO 16006KT 10SM CLR 25/01 A2990 RMK AO2 SLP124 T02500011 $
KRBL 182354Z AUTO 17007KT 10SM CLR 27/M01 A2992 RMK AO2 SLP128 T02721011 10278 20206 56020 $
KRBL 182254Z AUTO 16009KT 10SM CLR 27/M03 A2994 RMK AO2 SLP134 T02721028 $
KRBL 182154Z AUTO 13006KT 10SM CLR 27/M01 A2996 RMK AO2 SLP142 T02671006 $
KRBL 182054Z AUTO 10SM CLR 26/M01 A2998 RMK AO2 SLP148 T02561006 58022 $
KRBL 181954Z AUTO 13005KT 10SM CLR 24/M02 A3001 RMK AO2 SLP159 T02441017 $
KRBL 181854Z AUTO VRB03KT 10SM CLR 23/M02 A3003 RMK AO2 SLP167 T02281022 $
KRBL 181754Z AUTO 07003KT 10SM CLR 21/00 A3004 RMK AO2 SLP172 T02060000 10206 20067 50002 $
KRBL 181654Z AUTO 34007KT 10SM CLR 18/00 A3005 RMK AO2 SLP175 T01780000
KRBL 181554Z AUTO 33004KT 10SM CLR 12/M01 A3005 RMK AO2 SLP173 T01171006
KRBL 181454Z AUTO 33004KT 10SM CLR 07/M01 A3004 RMK AO2 SLP171 T00721006 53003
KRBL 181354Z AUTO 34006KT 10SM CLR 09/M01 A3003 RMK AO2 SLP167 T00941006
KRBL 181254Z AUTO 32004KT 10SM CLR 09/M01 A3002 RMK AO2 SLP165 T00941006
KRBL 181154Z AUTO 34007KT 10SM CLR 11/M01 A3003 RMK AO2 SLP165 T01111006 10128 20083 56010
KRBL 181054Z AUTO 33007KT 10SM CLR 09/M01 A3003 RMK AO2 SLP167 T00941011
KRBL 180954Z AUTO 32006KT 10SM CLR 10/M01 A3005 RMK AO2 SLP172 T01001011
KRBL 180854Z AUTO 31006KT 10SM CLR 11/M01 A3006 RMK AO2 SLP175 T01061006 50000
KRBL 180754Z AUTO 32006KT 10SM CLR 11/01 A3005 RMK AO2 SLP174 T01110006 402890061
KRBL 180654Z AUTO 33004KT 10SM CLR 11/01 A3007 RMK AO2 SLP179 T01110006
KRBL 180554Z AUTO 30004KT 10SM CLR 12/01 A3006 RMK AO2 SLP176 T01170011 10278 20111 53009
KRBL 180454Z AUTO 32004KT 10SM CLR 13/01 A3004 RMK AO2 SLP172 T01280011
KRBL 180354Z AUTO 29005KT 8SM CLR 14/02 A3004 RMK AO2 SLP169 T01390022
KRBL 180254Z AUTO 30003KT 9SM CLR 16/03 A3003 RMK AO2 SLP168 T01610028 53002
KRBL 180154Z AUTO 17004KT 10SM CLR 22/03 A3002 RMK AO2 SLP162 T02170028
KRBL 180054Z AUTO 13004KT 10SM CLR 25/02 A3001 RMK AO2 SLP160 T02500017
KRBL 172354Z AUTO 12006KT 10SM CLR 28/M01 A3002 RMK AO2 SLP164 T02781011 10289 20211 56012
KRBL 172254Z AUTO 14005KT 10SM CLR 28/M02 A3004 RMK AO2 SLP169 T02831022
KRBL 172154Z AUTO 14005KT 10SM CLR 28/M03 A3004 RMK AO2 SLP168 T02831033
KRBL 172054Z AUTO 00000KT 10SM CLR 28/M04 A3006 RMK AO2 SLP176 T02781039 58024
KRBL 171954Z AUTO 06003KT 10SM CLR 27/M02 A3009 RMK AO2 SLP186 T02671022